»·PEaware :: WAT463 KPSP-KSEE

WAT463 :: KPSP-KSEE

FLIGHT INFORMATION

Flight Status: Arrived
Operator:
Walker Air Transport
More flights by this operator :: More flights under this callsign
Pilot: Dan S. (31216)
Aircraft: CESSNA 182 SKYLANE
(C182)
More flights by this aircraft type
Origin: KPSP Palm Springs Intl
United States
Destination: KSEE Gillespie
United States
More flights between these airports :: More routes between these airports
Route: CATH1 PSP TRM V514 MZB
File this flight plan on PilotEdge
Remarks:
Altitude:
(Current/Filed)
10,000ft
Speed:
(Current/Filed)
145kts
Departed: 29-Dec-20 04:06 PM
Arrived: 29-Dec-20 04:53 PM
Distance/Time
Traveled:
65nm/0:47
Distance/Time
To Go:
Arrived

Flight Plot

Page will automatically refresh every two minutes.

Flight plan parsing failed; only flown route is shown


Map Options




Map Legend


Flown Route
Filed Route
Departure Airport
Arrival Airport
Navaid (VOR, NDB)
Fix

Horizontal Profiles

Position Reports

Time Latitude Longitude Heading Altitude Ground
Speed
29-Dec-20 15:47 33.825812 -116.507875 90 421ft 0kts
29-Dec-20 15:48 33.825812 -116.507875 90 421ft 0kts
29-Dec-20 15:49 33.825812 -116.507875 90 421ft 0kts
29-Dec-20 15:50 33.825815 -116.507513 88 419ft 2kts
29-Dec-20 15:51 33.825816 -116.507406 89 419ft 0kts
29-Dec-20 15:52 33.825816 -116.507406 89 419ft 0kts
29-Dec-20 15:53 33.825816 -116.507406 89 419ft 0kts
29-Dec-20 15:54 33.825816 -116.507406 89 419ft 0kts
29-Dec-20 15:55 33.825816 -116.507406 89 419ft 0kts
29-Dec-20 15:56 33.825816 -116.507406 89 419ft 0kts
29-Dec-20 15:57 33.824301 -116.504940 146 413ft 23kts
29-Dec-20 15:58 33.819158 -116.500343 142 401ft 18kts
29-Dec-20 15:59 33.818217 -116.498728 32 396ft 0kts
29-Dec-20 16:00 33.818218 -116.498727 32 396ft 0kts
29-Dec-20 16:01 33.818217 -116.498728 32 396ft 0kts
29-Dec-20 16:02 33.818217 -116.498728 32 396ft 0kts
29-Dec-20 16:03 33.818217 -116.498728 32 396ft 0kts
29-Dec-20 16:04 33.818217 -116.498728 32 396ft 0kts
29-Dec-20 16:05 33.824176 -116.502753 327 503ft 76kts
29-Dec-20 16:06 33.839842 -116.517853 327 1492ft 77kts
29-Dec-20 16:07 33.856657 -116.534081 326 2532ft 77kts
29-Dec-20 16:08 33.873049 -116.549891 326 3385ft 75kts
29-Dec-20 16:09 33.889181 -116.565432 325 4146ft 74kts
29-Dec-20 16:10 33.900761 -116.548483 66 4889ft 96kts
29-Dec-20 16:11 33.897041 -116.514964 93 5625ft 105kts
29-Dec-20 16:12 33.882471 -116.483467 120 6312ft 115kts
29-Dec-20 16:13 33.860606 -116.455511 119 7053ft 114kts
29-Dec-20 16:14 33.839077 -116.428096 117 7856ft 112kts
29-Dec-20 16:15 33.817813 -116.401016 115 8612ft 110kts
29-Dec-20 16:16 33.796946 -116.374400 114 9316ft 108kts
29-Dec-20 16:17 33.776450 -116.348347 114 9975ft 108kts
29-Dec-20 16:18 33.752278 -116.317458 119 10018ft 136kts
29-Dec-20 16:19 33.724082 -116.281489 122 9820ft 157kts
29-Dec-20 16:20 33.694177 -116.243840 123 9807ft 155kts
29-Dec-20 16:21 33.664483 -116.206418 124 9807ft 153kts
29-Dec-20 16:22 33.634121 -116.170348 155 9801ft 162kts
29-Dec-20 16:23 33.593154 -116.192006 217 9807ft 165kts
29-Dec-20 16:24 33.555685 -116.224021 219 9807ft 165kts
29-Dec-20 16:25 33.518457 -116.256576 219 9806ft 166kts
29-Dec-20 16:26 33.480201 -116.290051 220 9808ft 172kts
29-Dec-20 16:27 33.441278 -116.324140 220 9813ft 172kts
29-Dec-20 16:28 33.403552 -116.357180 220 9974ft 169kts
29-Dec-20 16:29 33.364926 -116.390798 220 9974ft 173kts
29-Dec-20 16:30 33.325785 -116.424944 220 9974ft 174kts
29-Dec-20 16:31 33.286690 -116.459216 219 9975ft 174kts
29-Dec-20 16:32 33.247425 -116.493177 219 9975ft 174kts
29-Dec-20 16:33 33.208841 -116.526787 218 9975ft 170kts
29-Dec-20 16:34 33.170662 -116.559927 218 9975ft 169kts
29-Dec-20 16:35 33.130336 -116.586974 184 10005ft 168kts
29-Dec-20 16:36 33.083696 -116.591909 181 10003ft 169kts
29-Dec-20 16:37 33.035173 -116.596918 182 9536ft 177kts
29-Dec-20 16:38 32.985952 -116.602165 182 9064ft 177kts
29-Dec-20 16:39 32.938140 -116.606932 182 9003ft 169kts
29-Dec-20 16:40 32.891623 -116.611725 182 8999ft 167kts
29-Dec-20 16:41 32.844794 -116.616599 182 8709ft 171kts
29-Dec-20 16:42 32.797366 -116.621496 182 8208ft 171kts
29-Dec-20 16:43 32.769509 -116.659450 289 7695ft 158kts
29-Dec-20 16:44 32.781061 -116.708521 287 7189ft 152kts
29-Dec-20 16:45 32.789492 -116.757971 286 6555ft 152kts
29-Dec-20 16:46 32.796921 -116.802687 288 5552ft 127kts
29-Dec-20 16:47 32.804037 -116.841469 289 4322ft 122kts
29-Dec-20 16:48 32.811058 -116.879903 287 2821ft 114kts
29-Dec-20 16:49 32.816602 -116.910657 286 2428ft 96kts
29-Dec-20 16:50 32.821764 -116.939001 285 1270ft 80kts
29-Dec-20 16:51 32.825936 -116.961578 280 498ft 62kts
29-Dec-20 16:52 32.828243 -116.971836 350 374ft 0kts
29-Dec-20 16:53 32.828243 -116.971836 350 374ft 0kts
29-Dec-20 16:55 32.828243 -116.971836 350 374ft 0kts
29-Dec-20 16:56 32.828243 -116.971901 170 374ft 10kts
29-Dec-20 16:57 32.824588 -116.970828 58 379ft 4kts
29-Dec-20 16:58 32.824688 -116.970796 1 379ft 0kts
29-Dec-20 16:59 32.824688 -116.970796 1 379ft 0kts
29-Dec-20 17:00 32.824688 -116.970796 1 379ft 0kts
29-Dec-20 17:01 32.824688 -116.970796 1 379ft 0kts
29-Dec-20 17:02 32.824688 -116.970796 1 379ft 0kts
29-Dec-20 17:03 32.824688 -116.970796 1 379ft 0kts
29-Dec-20 17:04 32.824688 -116.970796 1 379ft 0kts
29-Dec-20 17:05 32.824688 -116.970796 1 379ft 0kts

Navigation Log

Ident Type
Flight plan parsing failed, navigation log unavailable